Time;durP1;ratioP1;P1;durP2;ratioP2;P2;SDS_P1;SDS_P2;PMS_P1;PMS_P2;Temp;Humidity;BMP_temperature;BMP_pressure;BME280_temperature;BME280_humidity;BME280_pressure;Samples;Min_cycle;Max_cycle;Signal;HPM_P1;HPM_P2
2021/11/14 00:00:27;;;;;;;16.92;11.57;;;6.90;99.90;;;;;;5058381;28;20056;-87
2021/11/14 00:02:56;;;;;;;15.52;11.15;;;6.90;99.90;;;;;;5054248;28;20408;-87
2021/11/14 00:05:36;;;;;;;15.95;11.45;;;6.90;99.90;;;;;;5059256;28;20052;-87
2021/11/14 00:08:04;;;;;;;17.42;11.60;;;6.90;99.90;;;;;;5058500;28;20049;-87
2021/11/14 00:10:31;;;;;;;15.02;10.82;;;6.90;99.90;;;;;;5058385;28;20041;-86
2021/11/14 00:12:58;;;;;;;16.40;11.63;;;6.90;99.90;;;;;;5057271;28;20053;-86
2021/11/14 00:15:25;;;;;;;15.63;12.32;;;6.90;99.90;;;;;;5055893;28;20045;-86
2021/11/14 00:17:53;;;;;;;17.45;12.05;;;6.90;99.90;;;;;;5056002;28;20132;-87
2021/11/14 00:20:21;;;;;;;15.45;11.60;;;6.90;99.90;;;;;;5055949;28;20462;-86
2021/11/14 00:22:49;;;;;;;15.43;11.43;;;7.00;99.90;;;;;;5055014;28;20159;-87
2021/11/14 00:25:18;;;;;;;14.25;10.38;;;7.00;99.90;;;;;;5054871;28;20383;-86
2021/11/14 00:27:49;;;;;;;12.70;10.07;;;7.00;99.90;;;;;;5056107;28;20107;-87
2021/11/14 00:30:17;;;;;;;13.75;10.35;;;7.00;99.90;;;;;;5055752;28;20131;-87
2021/11/14 00:32:44;;;;;;;13.93;10.80;;;6.90;99.90;;;;;;5054490;28;20051;-87
2021/11/14 00:35:12;;;;;;;16.92;11.13;;;6.90;99.90;;;;;;5055710;28;20515;-87
2021/11/14 00:37:39;;;;;;;18.83;12.20;;;7.00;99.90;;;;;;5055698;28;20049;-87
2021/11/14 00:40:10;;;;;;;20.92;13.15;;;7.00;99.90;;;;;;5054496;28;20048;-87
2021/11/14 00:42:37;;;;;;;15.23;12.35;;;7.00;99.90;;;;;;5054217;28;20144;-86
2021/11/14 00:45:05;;;;;;;16.73;11.73;;;7.00;99.90;;;;;;5054455;28;20478;-87
2021/11/14 00:47:31;;;;;;;16.08;11.60;;;7.00;99.90;;;;;;5054297;28;20053;-87
2021/11/14 00:49:59;;;;;;;15.32;10.73;;;7.00;99.90;;;;;;5054210;28;20055;-87
2021/11/14 00:52:25;;;;;;;14.43;10.23;;;7.00;99.90;;;;;;5054048;28;20104;-87
2021/11/14 00:54:52;;;;;;;17.67;11.30;;;7.00;99.90;;;;;;5054380;28;20136;-87
2021/11/14 00:57:19;;;;;;;17.50;10.82;;;7.00;99.90;;;;;;5054075;28;20049;-87
2021/11/14 00:59:46;;;;;;;14.05;10.02;;;7.00;99.90;;;;;;5054049;28;20057;-86
2021/11/14 01:02:12;;;;;;;14.23;10.80;;;7.00;99.90;;;;;;5056014;28;20048;-87
2021/11/14 01:04:39;;;;;;;15.38;10.93;;;7.00;99.90;;;;;;5054132;28;20084;-87
2021/11/14 01:07:09;;;;;;;13.88;10.65;;;7.00;99.90;;;;;;5054018;28;20405;-87
2021/11/14 01:09:36;;;;;;;17.33;11.88;;;6.90;99.90;;;;;;5054087;28;20059;-87
2021/11/14 01:12:03;;;;;;;19.58;11.82;;;7.00;99.90;;;;;;5053906;28;20491;-87
2021/11/14 01:14:30;;;;;;;16.25;11.23;;;7.00;99.90;;;;;;5054754;28;20102;-87
2021/11/14 01:16:57;;;;;;;18.75;12.10;;;7.00;99.90;;;;;;5053840;28;20147;-87
2021/11/14 01:19:24;;;;;;;16.25;11.98;;;7.00;99.90;;;;;;5055039;28;20045;-87
2021/11/14 01:21:50;;;;;;;18.05;12.25;;;7.00;99.90;;;;;;5053723;28;20067;-86
2021/11/14 01:24:18;;;;;;;14.25;10.77;;;7.10;99.90;;;;;;5053591;28;20404;-87
2021/11/14 01:26:44;;;;;;;17.77;11.50;;;7.10;99.90;;;;;;5052338;28;20053;-87
2021/11/14 01:29:11;;;;;;;14.90;11.07;;;7.10;99.90;;;;;;5054746;28;20051;-87
2021/11/14 01:31:38;;;;;;;15.63;11.70;;;7.10;99.90;;;;;;5053684;28;20045;-87
2021/11/14 01:34:05;;;;;;;15.18;11.02;;;7.10;99.90;;;;;;5053286;28;20124;-87
2021/11/14 01:36:34;;;;;;;14.50;10.98;;;7.10;99.90;;;;;;5053408;28;20049;-87
2021/11/14 01:39:04;;;;;;;15.15;10.98;;;7.10;99.90;;;;;;5054256;28;20080;-87
2021/11/14 01:41:31;;;;;;;14.85;10.18;;;7.10;99.90;;;;;;5053467;28;20049;-87
2021/11/14 01:43:58;;;;;;;12.55;10.35;;;7.10;99.90;;;;;;5053539;28;20425;-86
2021/11/14 01:46:24;;;;;;;15.07;11.13;;;7.10;99.90;;;;;;5053005;28;20057;-87
2021/11/14 01:48:52;;;;;;;14.82;10.93;;;7.10;99.90;;;;;;5053287;28;20713;-87
2021/11/14 01:51:21;;;;;;;13.27;10.18;;;7.10;99.90;;;;;;5053239;28;20051;-88
2021/11/14 01:53:48;;;;;;;16.30;10.20;;;7.10;99.90;;;;;;5053286;28;20138;-87
2021/11/14 01:56:17;;;;;;;13.52;9.63;;;7.10;99.90;;;;;;5053981;28;20413;-87
2021/11/14 01:58:44;;;;;;;16.13;10.88;;;7.10;99.90;;;;;;5053297;28;20421;-87
2021/11/14 02:01:16;;;;;;;14.02;10.68;;;7.10;99.90;;;;;;5053164;28;20068;-87
2021/11/14 02:03:49;;;;;;;14.57;10.77;;;7.10;99.90;;;;;;5054155;28;20552;-87
2021/11/14 02:06:16;;;;;;;11.80;9.60;;;7.10;99.90;;;;;;5052665;28;20500;-87
2021/11/14 02:08:44;;;;;;;18.42;11.45;;;7.10;99.90;;;;;;5052834;28;20533;-87
2021/11/14 02:11:14;;;;;;;13.07;10.05;;;7.10;99.90;;;;;;5052943;28;20053;-87
2021/11/14 02:13:42;;;;;;;13.82;10.93;;;7.10;99.90;;;;;;5052644;28;20136;-87
2021/11/14 02:16:09;;;;;;;16.10;11.23;;;7.10;99.90;;;;;;5053872;28;20430;-87
2021/11/14 02:18:36;;;;;;;18.13;11.95;;;7.10;99.90;;;;;;5052472;28;20500;-87
2021/11/14 02:21:04;;;;;;;16.60;12.02;;;7.10;99.90;;;;;;5052496;28;20049;-87
2021/11/14 02:23:31;;;;;;;18.77;12.18;;;7.10;99.90;;;;;;5053833;28;20136;-87
2021/11/14 02:25:58;;;;;;;18.08;12.45;;;7.10;99.90;;;;;;5053339;28;20045;-88
2021/11/14 02:28:25;;;;;;;16.20;12.15;;;7.10;99.90;;;;;;5053367;28;20057;-87
2021/11/14 02:30:56;;;;;;;17.35;12.55;;;7.10;99.90;;;;;;5052503;28;20041;-87
2021/11/14 02:33:26;;;;;;;18.35;11.82;;;7.10;99.90;;;;;;5052340;28;20096;-87
2021/11/14 02:35:56;;;;;;;20.30;13.30;;;7.10;99.90;;;;;;5052234;28;20477;-87
2021/11/14 02:38:23;;;;;;;16.95;12.38;;;7.10;99.90;;;;;;5053016;28;20055;-87
2021/11/14 02:40:51;;;;;;;15.98;11.75;;;7.10;99.90;;;;;;5052277;28;20079;-87
2021/11/14 02:43:19;;;;;;;17.17;12.07;;;7.00;99.90;;;;;;5052371;28;20498;-87
2021/11/14 02:45:47;;;;;;;19.33;13.23;;;7.00;99.90;;;;;;5051986;28;20064;-87
2021/11/14 02:48:15;;;;;;;18.40;13.15;;;7.00;99.90;;;;;;5051852;28;20053;-87
2021/11/14 02:50:45;;;;;;;13.90;11.15;;;6.90;99.90;;;;;;5052267;28;20045;-86
2021/11/14 02:53:11;;;;;;;19.80;12.45;;;7.00;99.90;;;;;;5052310;28;20481;-86
2021/11/14 02:55:40;;;;;;;18.52;12.93;;;7.00;99.90;;;;;;5053327;28;20052;-87
2021/11/14 02:58:08;;;;;;;16.90;11.82;;;7.10;99.90;;;;;;5052023;28;20041;-87
2021/11/14 03:00:43;;;;;;;15.55;11.20;;;7.10;99.90;;;;;;5052222;28;20059;-87
2021/11/14 03:03:10;;;;;;;16.58;11.25;;;7.00;99.90;;;;;;5051943;28;20052;-87
2021/11/14 03:05:38;;;;;;;16.65;10.93;;;6.90;99.90;;;;;;5051847;28;20061;-87
2021/11/14 03:08:05;;;;;;;13.57;10.23;;;7.00;99.90;;;;;;5052082;28;20041;-87
2021/11/14 03:10:32;;;;;;;17.65;11.75;;;7.00;99.90;;;;;;5051964;28;20049;-87
2021/11/14 03:13:08;;;;;;;16.27;11.30;;;7.10;99.90;;;;;;5053076;28;20045;-87
2021/11/14 03:15:40;;;;;;;15.77;11.05;;;7.10;99.90;;;;;;5053103;28;20049;-87
2021/11/14 03:18:08;;;;;;;16.27;10.55;;;7.10;99.90;;;;;;5052035;28;20052;-87
2021/11/14 03:20:37;;;;;;;17.73;10.90;;;7.10;99.90;;;;;;5053075;28;20432;-87
2021/11/14 03:23:05;;;;;;;15.18;10.52;;;7.10;99.90;;;;;;5052955;28;20087;-87
2021/11/14 03:25:32;;;;;;;17.25;11.40;;;7.20;99.90;;;;;;5052831;28;20075;-87
2021/11/14 03:28:00;;;;;;;14.95;11.13;;;7.20;99.90;;;;;;5051750;28;20052;-87
2021/11/14 03:30:28;;;;;;;14.75;10.80;;;7.20;99.90;;;;;;5052975;28;20045;-87
2021/11/14 03:32:55;;;;;;;16.45;11.23;;;7.20;99.90;;;;;;5051807;28;20135;-87
2021/11/14 03:35:23;;;;;;;12.48;9.48;;;7.20;99.90;;;;;;5051785;28;20107;-87
2021/11/14 03:37:50;;;;;;;12.32;9.73;;;7.20;99.90;;;;;;5052700;28;20049;-87
2021/11/14 03:40:19;;;;;;;17.95;10.98;;;7.10;99.90;;;;;;5052622;28;20049;-87
2021/11/14 03:42:47;;;;;;;16.75;11.50;;;7.20;99.90;;;;;;5051737;28;20162;-87
2021/11/14 03:45:14;;;;;;;16.15;11.05;;;7.20;99.90;;;;;;5051665;28;20055;-86
2021/11/14 03:47:41;;;;;;;13.27;10.57;;;7.20;99.90;;;;;;5052468;28;20045;-86
2021/11/14 03:50:09;;;;;;;16.35;11.18;;;7.10;99.90;;;;;;5055659;28;20053;-86
2021/11/14 03:52:37;;;;;;;13.15;10.57;;;7.10;99.90;;;;;;5055364;28;20059;-87
2021/11/14 03:55:05;;;;;;;16.17;10.85;;;7.10;99.90;;;;;;5055205;28;20110;-87
2021/11/14 03:57:33;;;;;;;17.40;11.15;;;7.20;99.90;;;;;;5055574;28;20053;-87
2021/11/14 03:59:59;;;;;;;15.70;10.57;;;7.20;99.90;;;;;;5055373;28;20500;-87
2021/11/14 04:02:26;;;;;;;13.18;10.82;;;7.10;99.90;;;;;;5055140;28;20040;-87
2021/11/14 04:04:53;;;;;;;15.05;11.48;;;7.00;99.90;;;;;;5055061;28;20056;-87
2021/11/14 04:07:20;;;;;;;12.57;10.23;;;7.00;99.90;;;;;;5055281;28;20129;-87
2021/11/14 04:09:47;;;;;;;14.95;10.73;;;7.00;99.90;;;;;;5055139;28;20098;-87
2021/11/14 04:12:14;;;;;;;17.35;10.93;;;6.90;99.90;;;;;;5055258;28;20107;-87
2021/11/14 04:14:41;;;;;;;16.60;10.82;;;6.90;99.90;;;;;;5054654;28;20049;-86
2021/11/14 04:17:08;;;;;;;17.83;11.20;;;6.90;99.90;;;;;;5054971;28;20149;-87
2021/11/14 04:19:35;;;;;;;17.98;11.77;;;6.90;99.90;;;;;;5054999;28;20136;-87
2021/11/14 04:22:02;;;;;;;14.93;10.70;;;6.90;99.90;;;;;;5055857;28;20048;-87
2021/11/14 04:24:29;;;;;;;16.67;11.27;;;6.90;99.90;;;;;;5055844;28;20053;-87
2021/11/14 04:26:56;;;;;;;15.20;11.23;;;6.80;99.90;;;;;;5054747;28;20056;-87
2021/11/14 04:29:23;;;;;;;16.42;11.25;;;6.90;99.90;;;;;;5054742;28;20489;-87
2021/11/14 04:31:50;;;;;;;15.70;11.27;;;6.90;99.90;;;;;;5054655;28;20486;-87
2021/11/14 04:34:17;;;;;;;15.65;11.07;;;7.00;99.90;;;;;;5054338;28;20459;-87
2021/11/14 04:36:43;;;;;;;17.08;11.20;;;7.00;99.90;;;;;;5054556;28;20060;-87
2021/11/14 04:39:10;;;;;;;17.48;11.77;;;7.00;99.90;;;;;;5054696;28;20045;-87
2021/11/14 04:41:37;;;;;;;17.70;12.13;;;7.00;99.90;;;;;;5055445;28;20413;-87
2021/11/14 04:44:04;;;;;;;15.90;12.10;;;7.10;99.90;;;;;;5055208;28;20041;-87
2021/11/14 04:46:31;;;;;;;17.58;11.35;;;7.10;99.90;;;;;;5053674;28;20144;-87
2021/11/14 04:48:58;;;;;;;16.50;12.15;;;7.10;99.90;;;;;;5053943;28;20055;-87
2021/11/14 04:51:25;;;;;;;16.52;11.45;;;7.20;99.90;;;;;;5053923;28;20049;-87
2021/11/14 04:53:52;;;;;;;15.77;11.25;;;7.20;99.90;;;;;;5054173;28;20124;-87
2021/11/14 04:56:18;;;;;;;14.93;11.25;;;7.20;99.90;;;;;;5054060;28;20674;-87
2021/11/14 04:58:46;;;;;;;15.40;11.50;;;7.20;99.90;;;;;;5054283;28;20055;-87
2021/11/14 05:01:13;;;;;;;16.00;11.70;;;7.20;99.90;;;;;;5053828;28;20049;-86
2021/11/14 05:03:40;;;;;;;14.68;9.75;;;7.20;99.90;;;;;;5054330;28;20071;-87
2021/11/14 05:06:09;;;;;;;14.25;10.07;;;7.20;99.90;;;;;;5054097;28;20386;-87
2021/11/14 05:08:36;;;;;;;15.30;9.98;;;7.10;99.90;;;;;;5053921;28;20056;-87
2021/11/14 05:11:03;;;;;;;13.90;10.63;;;7.20;99.90;;;;;;5054086;28;20055;-87
2021/11/14 05:13:30;;;;;;;15.57;10.82;;;7.20;99.90;;;;;;5053920;28;20136;-87
2021/11/14 05:15:57;;;;;;;14.13;10.25;;;7.20;99.90;;;;;;5054709;28;20504;-87
2021/11/14 05:18:24;;;;;;;14.05;10.25;;;7.20;99.90;;;;;;5054693;28;20053;-87
2021/11/14 05:20:51;;;;;;;14.25;10.00;;;7.20;99.90;;;;;;5054830;28;20049;-87
2021/11/14 05:23:18;;;;;;;14.43;10.20;;;7.10;99.90;;;;;;5053958;28;20057;-87
2021/11/14 05:25:46;;;;;;;14.88;10.20;;;7.10;99.90;;;;;;5054882;28;20173;-87
2021/11/14 05:28:13;;;;;;;14.60;10.52;;;7.10;99.90;;;;;;5053966;28;20140;-87
2021/11/14 05:30:40;;;;;;;16.05;10.73;;;7.10;99.90;;;;;;5053697;28;20456;-87
2021/11/14 05:33:07;;;;;;;15.35;10.18;;;7.10;99.90;;;;;;5053828;28;20059;-87
2021/11/14 05:35:34;;;;;;;16.45;10.85;;;7.10;99.90;;;;;;5054345;28;20049;-87
2021/11/14 05:38:02;;;;;;;13.60;10.43;;;7.10;99.90;;;;;;5054574;28;20041;-87
2021/11/14 05:40:29;;;;;;;15.15;10.95;;;7.10;99.90;;;;;;5053577;28;20053;-87
2021/11/14 05:42:55;;;;;;;15.02;11.02;;;7.00;99.90;;;;;;5054567;28;20378;-87
2021/11/14 05:45:22;;;;;;;15.60;11.05;;;7.00;99.90;;;;;;5053380;28;20048;-87
2021/11/14 05:47:49;;;;;;;16.10;10.85;;;7.10;99.90;;;;;;5054175;28;20074;-87
2021/11/14 05:50:17;;;;;;;14.07;10.43;;;7.10;99.90;;;;;;5053515;28;20466;-87
2021/11/14 05:52:44;;;;;;;13.52;10.23;;;7.10;99.90;;;;;;5053192;28;20485;-87
2021/11/14 05:55:11;;;;;;;16.02;11.50;;;7.10;99.90;;;;;;5054145;28;20386;-87
2021/11/14 05:57:51;;;;;;;18.27;11.13;;;7.10;99.90;;;;;;5053080;28;20071;-87
2021/11/14 06:00:38;;;;;;;19.50;10.73;;;7.10;99.90;;;;;;5054235;28;20489;-87
2021/11/14 06:03:20;;;;;;;16.10;10.55;;;7.00;99.90;;;;;;5053097;28;20148;-87
2021/11/14 06:05:47;;;;;;;16.48;11.32;;;7.00;99.90;;;;;;5053796;28;20045;-87
2021/11/14 06:08:20;;;;;;;17.20;11.30;;;6.90;99.90;;;;;;5053004;28;20053;-87
2021/11/14 06:10:49;;;;;;;15.13;10.93;;;7.00;99.90;;;;;;5052767;28;20047;-87
2021/11/14 06:13:18;;;;;;;15.88;10.80;;;6.90;99.90;;;;;;5052842;28;20049;-88
2021/11/14 06:15:45;;;;;;;15.93;10.85;;;7.00;99.90;;;;;;5052789;28;20541;-87
2021/11/14 06:18:12;;;;;;;16.80;12.15;;;7.00;99.90;;;;;;5052806;28;20504;-87
2021/11/14 06:20:38;;;;;;;18.17;11.73;;;6.90;99.90;;;;;;5052961;28;20591;-88
2021/11/14 06:23:06;;;;;;;18.88;11.93;;;6.80;99.90;;;;;;5053047;28;20075;-88
2021/11/14 06:25:33;;;;;;;17.55;12.60;;;6.70;99.90;;;;;;5052463;28;20556;-88
2021/11/14 06:28:00;;;;;;;17.13;11.50;;;6.80;99.90;;;;;;5053647;28;20140;-88
2021/11/14 06:30:27;;;;;;;17.35;11.85;;;6.80;99.90;;;;;;5052648;28;20041;-87
2021/11/14 06:32:54;;;;;;;16.08;11.98;;;6.80;99.90;;;;;;5053415;28;20576;-87
2021/11/14 06:35:21;;;;;;;16.50;11.52;;;6.70;99.90;;;;;;5053337;28;20498;-87
2021/11/14 06:37:47;;;;;;;17.52;11.45;;;6.70;99.90;;;;;;5053552;28;20041;-88
2021/11/14 06:40:15;;;;;;;19.98;11.98;;;6.70;99.90;;;;;;5053500;28;20489;-88
2021/11/14 06:42:42;;;;;;;19.85;11.90;;;6.60;99.90;;;;;;5052159;28;20047;-87
2021/11/14 06:45:10;;;;;;;20.73;12.25;;;6.70;99.90;;;;;;5052427;28;20075;-87
2021/11/14 06:47:37;;;;;;;19.10;13.25;;;6.90;99.90;;;;;;5052196;28;20091;-88
2021/11/14 06:50:07;;;;;;;19.83;13.05;;;6.90;99.90;;;;;;5052577;28;20053;-87
2021/11/14 06:52:34;;;;;;;20.40;12.27;;;6.90;99.90;;;;;;5052140;28;20055;-87
2021/11/14 06:55:01;;;;;;;21.60;12.55;;;6.90;99.90;;;;;;5052904;28;20045;-87
2021/11/14 06:57:28;;;;;;;17.83;12.40;;;7.00;99.90;;;;;;5053299;28;20135;-88
2021/11/14 06:59:55;;;;;;;17.20;12.32;;;7.10;99.90;;;;;;5053235;28;20051;-88
2021/11/14 07:02:22;;;;;;;19.27;12.80;;;7.10;99.90;;;;;;5051947;28;20053;-87
2021/11/14 07:04:49;;;;;;;17.17;12.35;;;7.10;99.90;;;;;;5051861;28;20056;-88
2021/11/14 07:07:16;;;;;;;20.48;12.25;;;7.20;99.90;;;;;;5052795;28;20108;-87
2021/11/14 07:09:43;;;;;;;16.95;12.38;;;7.30;99.90;;;;;;5051895;28;20055;-88
2021/11/14 07:12:11;;;;;;;18.38;12.07;;;7.30;99.90;;;;;;5052099;28;20179;-87
2021/11/14 07:14:37;;;;;;;22.23;15.38;;;7.40;99.90;;;;;;5054337;28;20056;-88
2021/11/14 07:17:05;;;;;;;23.27;14.77;;;7.40;99.90;;;;;;5059138;28;20044;-88
2021/11/14 07:19:32;;;;;;;17.52;12.68;;;7.40;99.90;;;;;;5060986;28;20460;-87
2021/11/14 07:21:59;;;;;;;20.42;15.27;;;7.50;99.90;;;;;;5044780;28;20060;-87
2021/11/14 07:24:25;;;;;;;22.08;15.15;;;7.60;99.90;;;;;;5064964;28;20135;-88
2021/11/14 07:26:52;;;;;;;20.95;15.95;;;7.60;99.90;;;;;;5049688;28;20139;-87
2021/11/14 07:29:19;;;;;;;23.73;16.23;;;7.60;99.90;;;;;;5059172;28;20059;-88
2021/11/14 07:31:46;;;;;;;27.30;17.27;;;7.70;99.90;;;;;;5055400;28;20044;-87
2021/11/14 07:34:13;;;;;;;23.90;16.02;;;7.70;99.90;;;;;;5037576;28;20056;-87
2021/11/14 07:36:39;;;;;;;30.17;18.42;;;7.70;99.90;;;;;;5037516;28;20049;-88
2021/11/14 07:39:06;;;;;;;30.73;18.10;;;7.80;99.90;;;;;;5038097;28;20051;-87
2021/11/14 07:41:33;;;;;;;27.02;17.75;;;7.80;99.90;;;;;;5055636;28;20136;-87
2021/11/14 07:44:00;;;;;;;34.17;21.75;;;7.90;99.90;;;;;;5038373;28;20596;-87
2021/11/14 07:46:27;;;;;;;24.52;18.10;;;7.90;99.90;;;;;;5037583;28;20543;-87
2021/11/14 07:48:55;;;;;;;29.33;18.83;;;7.90;99.90;;;;;;5038005;28;20528;-87
2021/11/14 07:51:26;;;;;;;29.43;18.10;;;7.90;99.90;;;;;;5038733;28;20045;-88
2021/11/14 07:53:53;;;;;;;33.25;19.60;;;8.10;99.90;;;;;;5055416;28;20071;-87
2021/11/14 07:56:20;;;;;;;42.97;20.27;;;8.20;99.90;;;;;;5037915;28;20435;-87
2021/11/14 07:58:47;;;;;;;33.15;19.13;;;8.20;99.90;;;;;;5038118;28;20044;-88
2021/11/14 08:01:14;;;;;;;34.78;19.60;;;8.30;99.90;;;;;;5037941;28;20052;-88
2021/11/14 08:03:41;;;;;;;51.05;24.33;;;8.30;99.90;;;;;;5037774;28;20041;-87
2021/11/14 08:06:08;;;;;;;43.30;22.88;;;8.40;99.90;;;;;;5055967;28;20080;-87
2021/11/14 08:08:35;;;;;;;42.92;23.42;;;8.40;99.90;;;;;;5036650;28;20063;-88
2021/11/14 08:11:02;;;;;;;21.23;14.40;;;8.40;99.90;;;;;;5038102;28;20059;-87
2021/11/14 08:13:29;;;;;;;21.60;14.70;;;8.30;99.90;;;;;;5056057;28;20095;-87
2021/11/14 08:15:56;;;;;;;22.40;14.45;;;8.30;99.90;;;;;;5038012;28;20499;-87
2021/11/14 08:18:23;;;;;;;22.67;14.52;;;8.30;99.90;;;;;;5036843;28;20045;-88
2021/11/14 08:20:50;;;;;;;24.08;14.98;;;8.30;99.90;;;;;;5055373;28;20061;-88
2021/11/14 08:23:17;;;;;;;22.30;15.70;;;8.30;99.90;;;;;;5055881;28;20081;-87
2021/11/14 08:25:49;;;;;;;25.40;17.05;;;8.20;99.90;;;;;;5038468;28;20064;-88
2021/11/14 08:28:16;;;;;;;25.77;17.25;;;8.10;99.90;;;;;;5038174;28;20071;-87
2021/11/14 08:30:43;;;;;;;27.70;18.70;;;8.10;99.90;;;;;;5038076;28;20055;-88
2021/11/14 08:33:32;;;;;;;27.42;17.92;;;8.30;99.90;;;;;;5041056;28;20056;-87
2021/11/14 08:35:59;;;;;;;25.38;17.70;;;8.20;99.90;;;;;;5036971;28;20171;-87
2021/11/14 08:38:27;;;;;;;24.70;17.20;;;8.30;99.90;;;;;;5037656;28;20489;-87
2021/11/14 08:40:55;;;;;;;25.55;16.88;;;8.30;99.90;;;;;;5037837;28;20565;-87
2021/11/14 08:43:21;;;;;;;24.70;16.35;;;8.30;99.90;;;;;;5037761;28;20400;-87
2021/11/14 08:45:48;;;;;;;23.80;16.63;;;8.40;99.90;;;;;;5037673;28;20171;-88
2021/11/14 08:48:20;;;;;;;25.75;17.77;;;8.50;99.90;;;;;;5055171;28;20098;-87
2021/11/14 08:50:48;;;;;;;21.73;15.82;;;8.70;99.90;;;;;;5037994;28;20045;-87
2021/11/14 08:53:15;;;;;;;26.38;17.08;;;8.70;99.90;;;;;;5037980;28;20182;-88
2021/11/14 08:55:41;;;;;;;23.08;16.20;;;8.80;99.90;;;;;;5036986;28;20052;-87
2021/11/14 08:58:32;;;;;;;22.42;15.55;;;8.70;99.90;;;;;;5054978;28;20049;-87
2021/11/14 09:01:03;;;;;;;21.88;16.20;;;8.80;99.90;;;;;;5037601;28;20151;-88
2021/11/14 09:03:31;;;;;;;22.38;15.75;;;9.00;99.90;;;;;;5037343;28;20493;-87
2021/11/14 09:05:58;;;;;;;27.00;16.83;;;9.20;99.90;;;;;;5037629;28;20049;-87
2021/11/14 09:08:25;;;;;;;26.38;17.55;;;9.30;99.90;;;;;;5037398;28;20045;-87
2021/11/14 09:10:52;;;;;;;24.38;16.67;;;9.20;99.90;;;;;;5037401;28;20115;-87
2021/11/14 09:13:19;;;;;;;22.50;16.65;;;9.20;99.90;;;;;;5054957;28;20056;-87
2021/11/14 09:15:46;;;;;;;26.08;17.10;;;9.10;99.90;;;;;;5036907;28;20055;-87
2021/11/14 09:18:15;;;;;;;24.42;16.67;;;9.00;99.90;;;;;;5037247;28;20075;-87
2021/11/14 09:20:43;;;;;;;24.92;17.08;;;9.10;99.90;;;;;;5037122;28;20048;-87
2021/11/14 09:23:10;;;;;;;23.20;16.13;;;9.00;99.90;;;;;;5054548;28;20389;-88
2021/11/14 09:25:41;;;;;;;26.27;16.48;;;9.00;99.90;;;;;;5054405;28;20049;-87
2021/11/14 09:28:09;;;;;;;22.77;16.50;;;9.20;99.90;;;;;;5037077;28;20049;-87
2021/11/14 09:30:36;;;;;;;25.17;16.92;;;9.30;99.90;;;;;;5053347;28;20060;-88
2021/11/14 09:33:04;;;;;;;26.02;17.85;;;9.10;99.90;;;;;;5036840;28;20132;-87
2021/11/14 09:35:32;;;;;;;25.25;16.92;;;9.00;99.90;;;;;;5053915;28;20094;-87
2021/11/14 09:37:59;;;;;;;29.63;19.45;;;9.00;99.90;;;;;;5036968;28;20482;-87
2021/11/14 09:40:26;;;;;;;29.42;19.02;;;9.00;99.90;;;;;;5054382;28;20048;-87
2021/11/14 09:42:53;;;;;;;77.32;46.70;;;9.00;99.90;;;;;;5036769;28;20049;-87
2021/11/14 09:45:23;;;;;;;202.45;111.18;;;8.90;99.90;;;;;;5036424;28;20053;-87
2021/11/14 09:47:50;;;;;;;34.78;22.20;;;8.90;99.90;;;;;;5052828;28;20132;-87
2021/11/14 09:50:17;;;;;;;31.58;19.95;;;9.00;99.90;;;;;;5053608;28;20394;-87
2021/11/14 09:52:44;;;;;;;27.25;17.83;;;9.00;99.90;;;;;;5036487;28;20049;-88
2021/11/14 09:55:12;;;;;;;28.00;17.15;;;8.90;99.90;;;;;;5053908;28;20055;-87
2021/11/14 09:57:40;;;;;;;28.58;19.30;;;8.90;99.90;;;;;;5054032;28;20131;-87
2021/11/14 10:00:09;;;;;;;28.45;18.25;;;8.80;99.90;;;;;;5036734;28;20077;-87
2021/11/14 10:02:37;;;;;;;26.15;17.42;;;8.90;99.90;;;;;;5053563;28;20059;-87
2021/11/14 10:05:06;;;;;;;28.15;17.15;;;8.90;99.90;;;;;;5036595;28;20052;-87
2021/11/14 10:07:38;;;;;;;31.35;18.75;;;8.80;99.90;;;;;;5053642;28;20405;-87
2021/11/14 10:10:09;;;;;;;25.95;17.05;;;8.90;99.90;;;;;;5035010;28;20538;-88
2021/11/14 10:12:36;;;;;;;25.50;16.80;;;8.80;99.90;;;;;;5036232;28;20055;-88
2021/11/14 10:15:09;;;;;;;29.77;19.98;;;9.00;99.90;;;;;;5053465;28;20068;-87
2021/11/14 10:17:37;;;;;;;27.40;19.27;;;9.00;99.90;;;;;;5036259;28;20053;-87
2021/11/14 10:20:18;;;;;;;46.33;31.10;;;9.00;99.90;;;;;;5035876;28;20478;-87
2021/11/14 10:23:01;;;;;;;27.17;18.60;;;9.10;99.90;;;;;;5035875;28;20071;-87
2021/11/14 10:25:29;;;;;;;48.55;29.58;;;9.20;99.90;;;;;;5035851;28;20133;-87
2021/11/14 10:28:04;;;;;;;37.97;25.50;;;9.10;99.90;;;;;;5036034;28;20047;-87
2021/11/14 10:30:34;;;;;;;30.13;19.08;;;9.20;99.90;;;;;;5035977;28;20528;-87
2021/11/14 10:33:10;;;;;;;28.58;18.55;;;9.00;99.90;;;;;;5035771;28;20051;-87
2021/11/14 10:35:38;;;;;;;26.67;18.50;;;9.00;99.90;;;;;;5035653;28;20071;-87
2021/11/14 10:38:09;;;;;;;32.50;22.77;;;9.00;99.90;;;;;;5035760;28;20047;-87
2021/11/14 10:40:40;;;;;;;42.65;31.52;;;8.90;99.90;;;;;;5053282;28;20057;-87
2021/11/14 10:43:07;;;;;;;30.10;20.75;;;8.90;99.90;;;;;;5035883;28;20116;-87
2021/11/14 10:45:38;;;;;;;29.58;19.38;;;9.10;99.90;;;;;;5053147;28;20113;-87
2021/11/14 10:48:15;;;;;;;26.83;18.63;;;9.20;99.90;;;;;;5052881;28;20057;-87
2021/11/14 10:50:44;;;;;;;31.13;19.60;;;9.20;99.90;;;;;;5035549;28;20056;-87
2021/11/14 10:53:14;;;;;;;24.38;16.92;;;9.10;99.90;;;;;;5035307;28;20493;-87
2021/11/14 10:55:53;;;;;;;23.70;17.58;;;9.30;99.90;;;;;;5035316;28;20063;-87
2021/11/14 10:58:22;;;;;;;23.95;16.50;;;9.40;99.90;;;;;;5052894;28;20080;-87
2021/11/14 11:00:51;;;;;;;27.30;16.88;;;9.50;99.90;;;;;;5035352;28;20408;-87
2021/11/14 11:03:19;;;;;;;27.73;17.63;;;9.60;99.90;;;;;;5053043;28;20053;-87
2021/11/14 11:05:47;;;;;;;31.70;18.65;;;9.70;99.90;;;;;;5035273;28;20053;-87
2021/11/14 11:08:22;;;;;;;29.33;18.23;;;9.70;99.90;;;;;;5035291;28;20128;-87
2021/11/14 11:11:04;;;;;;;30.52;19.17;;;9.60;99.90;;;;;;5035388;28;20053;-88
2021/11/14 11:13:44;;;;;;;23.65;15.95;;;9.40;99.90;;;;;;5053093;28;20386;-88
2021/11/14 11:16:21;;;;;;;27.92;18.08;;;9.40;99.90;;;;;;5035056;28;20394;-87
2021/11/14 11:19:05;;;;;;;23.95;17.33;;;9.30;99.90;;;;;;5052701;28;20045;-88
2021/11/14 11:21:36;;;;;;;24.25;16.75;;;9.40;99.90;;;;;;5035739;28;20114;-87
2021/11/14 11:24:12;;;;;;;23.13;16.65;;;9.40;99.90;;;;;;5052975;28;20061;-87
2021/11/14 11:26:41;;;;;;;21.95;16.65;;;9.30;99.90;;;;;;5035108;28;20053;-87
2021/11/14 11:29:17;;;;;;;21.98;16.58;;;9.30;99.90;;;;;;5052750;28;20486;-87
2021/11/14 11:31:49;;;;;;;22.55;16.42;;;9.40;99.90;;;;;;5035190;28;20052;-87
2021/11/14 11:34:18;;;;;;;23.27;15.93;;;9.50;99.90;;;;;;5052648;28;20084;-87
2021/11/14 11:36:46;;;;;;;21.25;15.57;;;9.60;99.90;;;;;;5034791;28;20516;-87
2021/11/14 11:39:14;;;;;;;21.13;15.52;;;9.60;99.90;;;;;;5052566;28;20053;-87
2021/11/14 11:41:43;;;;;;;24.02;16.25;;;9.60;99.90;;;;;;5035077;28;20059;-87
2021/11/14 11:44:10;;;;;;;19.02;15.32;;;9.70;99.90;;;;;;5035346;28;20052;-87
2021/11/14 11:46:39;;;;;;;19.30;14.50;;;9.80;99.90;;;;;;5052148;28;20055;-87
2021/11/14 11:49:27;;;;;;;17.35;14.23;;;9.80;99.90;;;;;;5038200;28;20065;-87
2021/11/14 11:51:57;;;;;;;20.55;15.95;;;9.80;99.90;;;;;;5052955;28;20052;-87
2021/11/14 11:54:26;;;;;;;20.25;14.20;;;9.60;99.90;;;;;;5062705;28;20083;-87
2021/11/14 11:56:56;;;;;;;19.20;14.52;;;9.50;99.90;;;;;;5051346;28;20052;-87
2021/11/14 11:59:35;;;;;;;18.40;13.45;;;9.40;99.90;;;;;;5045592;28;20040;-87
2021/11/14 12:02:08;;;;;;;18.50;14.60;;;9.40;99.90;;;;;;5046230;28;20051;-87
2021/11/14 12:04:39;;;;;;;17.25;14.27;;;9.60;99.90;;;;;;5048508;28;20060;-87
2021/11/14 12:07:12;;;;;;;17.15;13.63;;;9.70;99.90;;;;;;5043733;28;20045;-87
2021/11/14 12:09:44;;;;;;;;;;;9.80;99.90;;;;;;5061996;28;20408;-87
2021/11/14 12:12:28;;;;;;;18.92;14.75;;;9.60;99.90;;;;;;5066070;28;19972;-87
2021/11/14 12:15:19;;;;;;;16.00;13.18;;;9.50;99.90;;;;;;5048446;28;20052;-87
2021/11/14 12:18:17;;;;;;;19.90;13.63;;;9.50;99.90;;;;;;5046987;28;20049;-87
2021/11/14 12:20:54;;;;;;;17.65;14.00;;;9.50;99.90;;;;;;5043603;28;20049;-87
2021/11/14 12:23:23;;;;;;;20.13;14.98;;;9.50;99.90;;;;;;5055216;28;20055;-88
2021/11/14 12:25:54;;;;;;;22.88;17.58;;;9.50;99.90;;;;;;5057918;28;20052;-87
2021/11/14 12:28:25;;;;;;;19.77;15.10;;;9.60;99.90;;;;;;5075632;28;20056;-87
2021/11/14 12:30:53;;;;;;;15.20;12.93;;;9.50;99.90;;;;;;5075756;28;20080;-87
2021/11/14 12:33:24;;;;;;;14.98;11.88;;;9.50;99.90;;;;;;5058206;28;20085;-87
2021/11/14 12:35:57;;;;;;;17.38;13.75;;;9.50;99.90;;;;;;5057688;28;20061;-87
2021/11/14 12:38:31;;;;;;;17.23;12.23;;;9.60;99.90;;;;;;5058120;28;20127;-87
2021/11/14 12:41:02;;;;;;;19.90;14.23;;;9.60;99.90;;;;;;5056970;28;20075;-87
2021/11/14 12:43:36;;;;;;;15.70;13.30;;;9.50;99.90;;;;;;5057188;28;20568;-86
2021/11/14 12:46:12;;;;;;;16.42;12.55;;;9.60;99.90;;;;;;5056731;28;20058;-86